ADDS METAR Data INFO
IDs: Format: Raw Decoded Include TAF

Data at: 0153 UTC 19 Jul 2018

KCZT 190135Z AUTO 15003KT 10SM CLR 36/12 A2984 RMK AO2
KCZT 190115Z AUTO 14003KT 10SM CLR 37/12 A2983 RMK AO2
KCZT 190055Z AUTO 16005KT 10SM CLR 38/12 A2983 RMK AO2
KCZT 190035Z AUTO 14004KT 10SM CLR 38/12 A2983 RMK AO2
KCZT 190015Z AUTO 17007KT 10SM CLR 39/12 A2983 RMK AO2
KCZT 182355Z AUTO 11004KT 10SM CLR 39/12 A2983 RMK AO2
KCZT 182335Z AUTO 14007KT 10SM CLR 39/12 A2984 RMK AO2
KCZT 182315Z AUTO 17008KT 10SM CLR 40/13 A2984 RMK AO2
KCZT 182255Z AUTO 15007G14KT 10SM CLR 39/13 A2984 RMK AO2
KCZT 182235Z AUTO 12007KT 090V150 10SM CLR 39/13 A2985 RMK AO2
KCZT 182215Z AUTO 16005G14KT 10SM CLR 39/16 A2985 RMK AO2
KCZT 182155Z AUTO 00000KT 10SM CLR 39/16 A2986 RMK AO2
KCZT 182135Z AUTO 14006KT 10SM CLR 40/15 A2986 RMK AO2
KCZT 182115Z AUTO 15007KT 10SM CLR 40/16 A2987 RMK AO2
KCZT 182055Z AUTO 13005KT 10SM CLR 39/16 A2988 RMK AO2
KCZT 182035Z AUTO 14007KT 10SM CLR 39/15 A2989 RMK AO2
KCZT 182015Z AUTO 15007KT 10SM CLR 38/16 A2990 RMK AO2
KCZT 181955Z AUTO 21007KT 10SM CLR 38/16 A2990 RMK AO2
KCZT 181935Z AUTO 14008G15KT 10SM CLR 38/15 A2991 RMK AO2
KCZT 181915Z AUTO 14005G14KT 10SM CLR 37/17 A2992 RMK AO2
KCZT 181855Z AUTO 21008KT 10SM CLR 37/17 A2993 RMK AO2
KCZT 181835Z AUTO 00000KT 10SM CLR 37/18 A2994 RMK AO2
KCZT 181815Z AUTO 25003KT 10SM CLR 36/18 A2995 RMK AO2
KCZT 181755Z AUTO 00000KT 10SM CLR 35/18 A2996 RMK AO2
KCZT 181735Z AUTO 19004KT 10SM CLR 35/20 A2997 RMK AO2
KCZT 181715Z AUTO 00000KT 10SM CLR 34/20 A2998 RMK AO2
KCZT 181655Z AUTO 16006KT 10SM CLR 33/21 A2999 RMK AO2
KCZT 181635Z AUTO 18003KT 10SM CLR 33/21 A2999 RMK AO2
KCZT 181615Z AUTO 16003KT 10SM CLR 32/21 A3000 RMK AO2
KCZT 181555Z AUTO 14004KT 10SM CLR 31/21 A3000 RMK AO2
KCZT 181535Z AUTO 17005KT 10SM CLR 30/21 A3001 RMK AO2
KCZT 181515Z AUTO 20004KT 10SM CLR 29/21 A3001 RMK AO2
KCZT 181455Z AUTO 18005KT 10SM CLR 28/21 A3002 RMK AO2
KCZT 181435Z AUTO 14005KT 10SM CLR 28/21 A3002 RMK AO2
KCZT 181415Z AUTO 16007KT 10SM CLR 27/21 A3003 RMK AO2
KCZT 181355Z AUTO 13005KT 10SM CLR 26/21 A3003 RMK AO2
KCZT 181335Z AUTO 12004KT 10SM CLR 25/21 A3003 RMK AO2
KCZT 181315Z AUTO 11005KT 10SM CLR 25/21 A3002 RMK AO2
KCZT 181255Z AUTO 10004KT 10SM CLR 24/20 A3002 RMK AO2
KCZT 181235Z AUTO 10003KT 10SM CLR 23/20 A3001 RMK AO2
KCZT 181215Z AUTO 11004KT 10SM CLR 22/20 A3000 RMK AO2
KCZT 181155Z AUTO 00000KT 10SM CLR 22/19 A3000 RMK AO2
KCZT 181135Z AUTO 00000KT 10SM CLR 23/19 A3000 RMK AO2
KCZT 181115Z AUTO 12003KT 10SM CLR 23/19 A3000 RMK AO2
KCZT 181055Z AUTO 11003KT 10SM CLR 23/19 A3000 RMK AO2
KCZT 181035Z AUTO 12003KT 10SM CLR 24/19 A2999 RMK AO2
KCZT 181015Z AUTO 13003KT 10SM CLR 25/20 A3000 RMK AO2
KCZT 180955Z AUTO 00000KT 10SM CLR 26/20 A3000 RMK AO2
KCZT 180935Z AUTO 13003KT 10SM CLR 26/20 A3000 RMK AO2
KCZT 180915Z AUTO 14004KT 10SM CLR 26/20 A2999 RMK AO2
KCZT 180855Z AUTO 16005KT 10SM CLR 27/21 A2999 RMK AO2
KCZT 180835Z AUTO 15004KT 10SM CLR 27/22 A2999 RMK AO2
KCZT 180815Z AUTO 15005KT 10SM CLR 27/22 A2999 RMK AO2
KCZT 180755Z AUTO 14005KT 10SM CLR 28/22 A2999 RMK AO2
KCZT 180735Z AUTO 15006KT 10SM CLR 28/23 A2999 RMK AO2
KCZT 180715Z AUTO 14008KT 10SM CLR 28/23 A2999 RMK AO2
KCZT 180655Z AUTO 15009KT 10SM CLR 28/23 A2999 RMK AO2
KCZT 180635Z AUTO 15008KT 10SM CLR 28/23 A2999 RMK AO2
KCZT 180615Z AUTO 14007KT 10SM CLR 29/23 A2998 RMK AO2
KCZT 180555Z AUTO 14008G15KT 10SM CLR 30/23 A2998 RMK AO2
KCZT 180535Z AUTO 15009G16KT 10SM CLR 30/23 A2997 RMK AO2
KCZT 180515Z AUTO 14011G18KT 10SM CLR 30/23 A2997 RMK AO2
KCZT 180455Z AUTO 14013G16KT 10SM CLR 31/23 A2997 RMK AO2
KCZT 180435Z AUTO 14008G17KT 10SM CLR 31/22 A2996 RMK AO2
KCZT 180415Z AUTO 14012G15KT 10SM CLR 32/20 A2996 RMK AO2
KCZT 180355Z AUTO 14010G14KT 10SM CLR 32/18 A2996 RMK AO2
KCZT 180335Z AUTO 13009G14KT 10SM CLR 33/17 A2995 RMK AO2
KCZT 180315Z AUTO 14011KT 10SM CLR 33/17 A2995 RMK AO2
KCZT 180255Z AUTO 13008KT 10SM CLR 33/17 A2994 RMK AO2
KCZT 180235Z AUTO 13007KT 10SM CLR 34/16 A2994 RMK AO2
KCZT 180215Z AUTO 13007KT 10SM CLR 35/16 A2994 RMK AO2
KCZT 180155Z AUTO 13007KT 10SM CLR 35/15 A2993 RMK AO2
KCZT 180135Z AUTO 14007KT 10SM CLR 36/14 A2993 RMK AO2 LTG DSNT W
KCZT 180115Z AUTO 14008KT 10SM CLR 36/12 A2992 RMK AO2
KCZT 180055Z AUTO 14007KT 10SM CLR 37/13 A2992 RMK AO2
KCZT 180035Z AUTO 14006KT 10SM CLR 37/13 A2992 RMK AO2
KCZT 180015Z AUTO 12008KT 10SM CLR 38/12 A2992 RMK AO2
KCZT 172355Z AUTO 15007KT 10SM CLR 38/12 A2992 RMK AO2
KCZT 172335Z AUTO 13008KT 10SM CLR 38/12 A2992 RMK AO2
KCZT 172315Z AUTO 13008KT 10SM CLR 38/12 A2992 RMK AO2
KCZT 172255Z AUTO 12006KT 10SM CLR 38/11 A2993 RMK AO2
KCZT 172235Z AUTO 13009KT 10SM CLR 39/12 A2993 RMK AO2
KCZT 172215Z AUTO 11003KT 10SM CLR 38/13 A2994 RMK AO2
KCZT 172155Z AUTO 16007KT 10SM CLR 39/11 A2994 RMK AO2
KCZT 172135Z AUTO 15005KT 10SM CLR 38/12 A2995 RMK AO2
KCZT 172115Z AUTO 12008G15KT 10SM CLR 38/14 A2995 RMK AO2
KCZT 172055Z AUTO 12004KT 10SM CLR 38/15 A2996 RMK AO2
KCZT 172035Z AUTO 13010KT 10SM CLR 38/15 A2997 RMK AO2
KCZT 172015Z AUTO 15008G14KT 10SM CLR 37/16 A2997 RMK AO2
KCZT 171955Z AUTO 12007G15KT 100V160 10SM CLR 37/16 A2999 RMK AO2
KCZT 171935Z AUTO 15006KT 10SM CLR 36/17 A2999 RMK AO2
KCZT 171915Z AUTO 07005G14KT 10SM CLR 36/18 A3000 RMK AO2
KCZT 171855Z AUTO 17006KT 10SM CLR 36/18 A3001 RMK AO2
KCZT 171835Z AUTO 00000KT 10SM CLR 35/18 A3002 RMK AO2
KCZT 171815Z AUTO 19004KT 10SM CLR 34/20 A3002 RMK AO2
KCZT 171755Z AUTO 15003KT 10SM CLR 33/20 A3003 RMK AO2
KCZT 171735Z AUTO 13006KT 10SM CLR 33/21 A3004 RMK AO2
KCZT 171715Z AUTO 00000KT 10SM CLR 32/20 A3004 RMK AO2
KCZT 171655Z AUTO 14008KT 10SM CLR 32/21 A3005 RMK AO2
KCZT 171635Z AUTO 11004KT 10SM CLR 31/21 A3005 RMK AO2
KCZT 171615Z AUTO 14004KT 10SM CLR 31/21 A3006 RMK AO2
KCZT 171555Z AUTO 12003KT 10SM CLR 30/21 A3006 RMK AO2
KCZT 171535Z AUTO 16004KT 10SM CLR 29/21 A3006 RMK AO2
KCZT 171515Z AUTO 14004KT 10SM CLR 28/21 A3007 RMK AO2
KCZT 171455Z AUTO 16006KT 10SM CLR 28/22 A3006 RMK AO2
KCZT 171435Z AUTO 14007KT 10SM CLR 27/22 A3006 RMK AO2
KCZT 171415Z AUTO 12008KT 10SM SCT017 26/22 A3007 RMK AO2
KCZT 171355Z AUTO 12007KT 10SM SCT015 26/22 A3006 RMK AO2